createdAt,value
2022-11-29T00:02:19.934Z,54.22
2022-11-29T00:05:06.511Z,59.88
2022-11-29T00:07:49.633Z,129.43
2022-11-29T00:10:43.202Z,52.78
2022-11-29T00:13:29.453Z,59.25
2022-11-29T00:16:28.429Z,61.33
2022-11-29T00:19:08.770Z,57.00
2022-11-29T00:21:57.148Z,69.63
2022-11-29T00:24:48.539Z,59.00
2022-11-29T00:27:32.369Z,60.28
2022-11-29T00:30:16.783Z,63.63
2022-11-29T00:33:04.978Z,86.20
2022-11-29T00:35:46.843Z,80.47
2022-11-29T00:38:30.984Z,68.40
2022-11-29T00:41:27.279Z,65.00
2022-11-29T00:44:16.753Z,60.65
2022-11-29T00:47:03.317Z,68.53
2022-11-29T00:49:40.676Z,69.63
2022-11-29T00:52:26.473Z,71.00
2022-11-29T00:55:23.440Z,63.20
2022-11-29T00:58:09.820Z,85.35
2022-11-29T01:00:55.462Z,108.32
2022-11-29T01:03:41.120Z,79.43
2022-11-29T01:06:23.034Z,66.60
2022-11-29T01:09:13.003Z,60.40
2022-11-29T01:11:55.044Z,57.72
2022-11-29T01:14:46.583Z,56.78
2022-11-29T01:17:43.990Z,58.88
2022-11-29T01:23:08.433Z,51.88
2022-11-29T01:25:52.773Z,86.68
2022-11-29T01:28:37.815Z,113.95
2022-11-29T01:31:20.188Z,57.90
2022-11-29T01:34:10.023Z,57.70
2022-11-29T01:36:53.313Z,60.90
2022-11-29T01:39:39.988Z,54.90
2022-11-29T01:42:32.370Z,63.53
2022-11-29T01:45:32.202Z,78.40
2022-11-29T01:48:17.034Z,77.35
2022-11-29T01:51:01.419Z,66.93
2022-11-29T01:53:44.716Z,58.50
2022-11-29T01:56:36.138Z,59.88
2022-11-29T01:59:17.386Z,62.42
2022-11-29T02:01:52.235Z,62.13
2022-11-29T02:04:37.302Z,60.35
2022-11-29T02:07:23.788Z,73.13
2022-11-29T02:10:02.020Z,56.55
2022-11-29T02:13:32.289Z,67.43
2022-11-29T02:17:03.147Z,59.72
2022-11-29T02:20:00.955Z,140.25
2022-11-29T02:23:03.970Z,64.20
2022-11-29T02:26:22.452Z,88.57
2022-11-29T02:29:29.349Z,85.88
2022-11-29T02:32:40.928Z,63.35
2022-11-29T02:35:55.955Z,56.83
2022-11-29T02:39:12.871Z,71.18
2022-11-29T02:43:01.839Z,103.43
2022-11-29T02:46:05.953Z,57.05
2022-11-29T02:49:12.450Z,58.60
2022-11-29T02:52:46.380Z,73.13
2022-11-29T02:56:12.286Z,73.90
2022-11-29T02:59:22.817Z,66.30
2022-11-29T03:02:45.156Z,73.18
2022-11-29T03:05:39.019Z,90.20
2022-11-29T03:08:46.997Z,68.72
2022-11-29T03:11:42.610Z,79.93
2022-11-29T03:14:22.974Z,65.03
2022-11-29T03:17:31.630Z,70.50
2022-11-29T03:21:07.997Z,52.85
2022-11-29T03:24:12.327Z,62.70
2022-11-29T03:26:55.148Z,72.57
2022-11-29T03:29:49.010Z,93.40
2022-11-29T03:32:48.747Z,76.95
2022-11-29T03:35:42.889Z,72.15
2022-11-29T03:39:08.405Z,73.88
2022-11-29T03:42:00.630Z,63.30
2022-11-29T03:44:54.055Z,58.33
2022-11-29T03:47:52.051Z,50.78
2022-11-29T03:50:58.469Z,67.53
2022-11-29T03:53:50.971Z,56.25
2022-11-29T03:56:45.575Z,58.55
2022-11-29T03:59:56.311Z,53.63
2022-11-29T04:02:37.095Z,68.60
2022-11-29T04:05:27.754Z,68.82
2022-11-29T04:08:49.130Z,55.72
2022-11-29T04:11:59.955Z,81.75
2022-11-29T04:15:15.442Z,61.67
2022-11-29T04:18:13.579Z,67.15
2022-11-29T04:21:23.260Z,76.88
2022-11-29T04:24:22.813Z,90.18
2022-11-29T04:27:20.327Z,59.92
2022-11-29T04:30:32.853Z,63.78
2022-11-29T04:33:35.225Z,51.33
2022-11-29T04:37:04.268Z,45.80
2022-11-29T04:40:07.573Z,61.33
2022-11-29T04:43:22.552Z,53.10
2022-11-29T04:46:11.969Z,54.25
2022-11-29T04:49:12.109Z,58.55
2022-11-29T04:52:14.579Z,60.67
2022-11-29T04:55:27.636Z,55.97
2022-11-29T04:58:25.382Z,61.95
2022-11-29T05:01:13.120Z,62.22
2022-11-29T05:03:57.513Z,54.15
2022-11-29T05:07:10.913Z,72.03
2022-11-29T05:10:18.911Z,61.33
2022-11-29T05:13:32.214Z,58.67
2022-11-29T05:20:34.510Z,61.03
2022-11-29T05:24:06.519Z,61.75
2022-11-29T05:26:51.625Z,60.35
2022-11-29T05:29:43.332Z,53.50
2022-11-29T05:32:41.017Z,50.45
2022-11-29T05:35:58.649Z,57.38
2022-11-29T05:39:13.970Z,51.88
2022-11-29T05:41:58.010Z,61.72
2022-11-29T05:44:57.776Z,54.17
2022-11-29T05:48:05.445Z,54.00
2022-11-29T05:50:53.604Z,50.20
2022-11-29T05:57:37.724Z,49.92
2022-11-29T06:00:22.994Z,45.88
2022-11-29T06:03:13.136Z,44.22
2022-11-29T06:06:10.965Z,46.50
2022-11-29T06:09:14.261Z,47.08
2022-11-29T06:12:06.890Z,47.00
2022-11-29T06:15:13.967Z,53.17
2022-11-29T06:18:23.668Z,53.70
2022-11-29T06:21:23.950Z,51.47
2022-11-29T06:24:34.477Z,53.63
2022-11-29T06:27:44.492Z,63.20
2022-11-29T06:30:26.688Z,50.55
2022-11-29T06:33:49.419Z,49.08
2022-11-29T06:36:34.610Z,58.45
2022-11-29T06:39:17.962Z,78.13
2022-11-29T06:42:01.880Z,56.42
2022-11-29T06:44:43.346Z,52.92
2022-11-29T06:48:19.174Z,54.97
2022-11-29T06:51:02.987Z,74.03
2022-11-29T06:54:02.075Z,67.05
2022-11-29T06:56:49.909Z,62.10
2022-11-29T06:59:37.565Z,60.88
2022-11-29T07:02:34.025Z,64.28
2022-11-29T07:05:42.854Z,60.50
2022-11-29T07:08:29.003Z,56.72
2022-11-29T07:11:05.551Z,60.80
2022-11-29T07:13:46.673Z,70.20
2022-11-29T07:16:46.580Z,60.58
2022-11-29T07:19:36.819Z,65.25
2022-11-29T07:22:47.856Z,57.33
2022-11-29T07:25:31.167Z,84.72
2022-11-29T07:28:34.251Z,60.65
2022-11-29T07:31:48.117Z,58.35
2022-11-29T07:35:13.410Z,61.97
2022-11-29T07:38:22.147Z,63.55
2022-11-29T07:41:33.273Z,74.32
2022-11-29T07:44:26.714Z,56.55
2022-11-29T07:47:17.285Z,76.40
2022-11-29T07:49:57.892Z,53.45
2022-11-29T07:52:37.008Z,63.75
2022-11-29T07:55:32.874Z,70.10
2022-11-29T07:58:20.981Z,59.00
2022-11-29T08:00:56.255Z,52.47
2022-11-29T08:03:29.456Z,57.63
2022-11-29T08:06:12.749Z,51.97
2022-11-29T08:08:53.643Z,51.88
2022-11-29T08:11:36.900Z,45.50
2022-11-29T08:14:07.891Z,69.32
2022-11-29T08:16:52.338Z,78.88
2022-11-29T08:22:12.131Z,42.70
2022-11-29T08:25:00.923Z,48.22
2022-11-29T08:27:37.380Z,50.60
2022-11-29T08:30:22.938Z,51.60
2022-11-29T08:32:56.531Z,49.90
2022-11-29T08:35:29.938Z,53.17
2022-11-29T08:38:17.034Z,57.42
2022-11-29T08:40:49.476Z,53.85
2022-11-29T08:43:32.583Z,42.20
2022-11-29T08:46:11.353Z,52.35
2022-11-29T08:48:55.793Z,57.20
2022-11-29T08:51:45.390Z,51.72
2022-11-29T08:54:21.137Z,51.92
2022-11-29T09:00:00.677Z,62.80
2022-11-29T09:02:43.968Z,52.53
2022-11-29T09:05:24.221Z,50.78
2022-11-29T09:08:02.958Z,51.63
2022-11-29T09:10:51.787Z,54.35
2022-11-29T09:13:39.314Z,60.42
2022-11-29T09:16:25.340Z,47.97
2022-11-29T09:19:19.929Z,53.53
2022-11-29T09:21:57.666Z,58.45
2022-11-29T09:24:55.863Z,53.38
2022-11-29T09:27:44.641Z,53.17
2022-11-29T09:30:26.542Z,56.90
2022-11-29T09:33:16.217Z,48.45
2022-11-29T09:35:54.234Z,55.00
2022-11-29T09:38:42.921Z,56.05
2022-11-29T09:41:48.978Z,50.40
2022-11-29T09:44:51.314Z,57.70
2022-11-29T09:47:53.404Z,49.33
2022-11-29T09:50:48.547Z,58.72
2022-11-29T09:53:38.045Z,43.92
2022-11-29T09:56:30.564Z,51.10
2022-11-29T09:59:29.082Z,53.10
2022-11-29T10:02:41.047Z,46.47
2022-11-29T10:05:46.676Z,48.10
2022-11-29T10:08:27.050Z,51.88
2022-11-29T10:11:25.136Z,48.38
2022-11-29T10:14:21.561Z,47.38
2022-11-29T10:17:15.431Z,53.72
2022-11-29T10:20:43.531Z,51.92
2022-11-29T10:23:35.422Z,50.58
2022-11-29T10:26:21.045Z,49.28
2022-11-29T10:29:01.917Z,45.25
2022-11-29T10:34:27.409Z,62.78
2022-11-29T10:37:13.913Z,48.95
2022-11-29T10:40:04.203Z,51.55
2022-11-29T10:42:54.991Z,55.28
2022-11-29T10:45:50.270Z,70.00
2022-11-29T10:48:34.345Z,60.92
2022-11-29T10:51:19.144Z,58.95
2022-11-29T10:54:08.592Z,51.17
2022-11-29T10:56:42.965Z,46.92
2022-11-29T10:59:24.340Z,50.17
2022-11-29T11:02:03.376Z,48.53
2022-11-29T11:04:50.132Z,56.95
2022-11-29T11:07:43.131Z,49.28
2022-11-29T11:10:39.411Z,52.72
2022-11-29T11:13:26.934Z,52.65
2022-11-29T11:16:23.544Z,47.50
2022-11-29T11:19:00.665Z,44.53
2022-11-29T11:21:46.375Z,57.83
2022-11-29T11:24:32.169Z,54.88
2022-11-29T11:27:17.370Z,44.90
2022-11-29T11:30:02.019Z,51.83
2022-11-29T11:32:46.243Z,51.08
2022-11-29T11:35:30.071Z,45.28
2022-11-29T11:38:27.992Z,49.13
2022-11-29T11:41:18.699Z,42.42
2022-11-29T11:43:59.913Z,52.95
2022-11-29T11:46:50.346Z,47.10
2022-11-29T11:50:08.901Z,43.72
2022-11-29T11:53:00.258Z,42.63
2022-11-29T11:56:10.891Z,42.00
2022-11-29T11:58:56.834Z,42.47
2022-11-29T12:01:48.420Z,44.05
2022-11-29T12:04:48.238Z,42.22
2022-11-29T12:08:07.449Z,42.25
2022-11-29T12:11:07.461Z,41.45
2022-11-29T12:13:51.303Z,39.20
2022-11-29T12:16:49.069Z,45.42
2022-11-29T12:19:41.412Z,47.22
2022-11-29T12:22:28.071Z,45.95
2022-11-29T12:25:15.867Z,37.95
2022-11-29T12:27:57.846Z,45.67
2022-11-29T12:30:36.270Z,47.60
2022-11-29T12:33:46.745Z,50.47
2022-11-29T12:36:42.450Z,50.15
2022-11-29T12:39:57.096Z,57.00
2022-11-29T12:43:07.357Z,52.60
2022-11-29T12:46:02.317Z,47.05
2022-11-29T12:48:50.862Z,58.28
2022-11-29T12:52:01.383Z,56.42
2022-11-29T12:55:11.891Z,62.08
2022-11-29T12:58:04.776Z,59.45
2022-11-29T13:00:55.692Z,61.60
2022-11-29T13:03:59.348Z,62.65
2022-11-29T13:06:58.851Z,65.75
2022-11-29T13:09:34.044Z,63.15
2022-11-29T13:12:43.446Z,65.63
2022-11-29T13:15:24.906Z,67.45
2022-11-29T13:18:09.122Z,67.70
2022-11-29T13:20:52.310Z,62.63
2022-11-29T13:24:08.520Z,66.82
2022-11-29T13:26:54.391Z,68.85
2022-11-29T13:29:41.071Z,65.10
2022-11-29T13:32:32.186Z,66.43
2022-11-29T13:35:27.933Z,69.35
2022-11-29T13:38:30.891Z,68.60
2022-11-29T13:41:34.519Z,78.13
2022-11-29T13:44:40.157Z,72.22
2022-11-29T13:47:33.527Z,80.28
2022-11-29T13:51:07.302Z,67.43
2022-11-29T13:53:51.159Z,62.55
2022-11-29T13:57:01.929Z,67.13
2022-11-29T13:59:50.965Z,61.83
2022-11-29T14:02:38.458Z,58.53
2022-11-29T14:05:31.213Z,60.22
2022-11-29T14:15:06.900Z,51.70
2022-11-29T14:17:49.299Z,51.88
2022-11-29T14:21:02.710Z,59.20
2022-11-29T14:23:56.570Z,74.90
2022-11-29T14:26:39.445Z,65.68
2022-11-29T14:29:59.549Z,55.30
2022-11-29T14:32:49.894Z,56.95
2022-11-29T14:35:51.985Z,62.45
2022-11-29T14:38:36.070Z,64.47
2022-11-29T14:41:25.313Z,60.15
2022-11-29T14:44:21.137Z,58.33
2022-11-29T14:47:21.349Z,66.45
2022-11-29T14:50:03.394Z,67.47
2022-11-29T14:53:04.848Z,63.75
2022-11-29T14:55:48.300Z,72.28
2022-11-29T14:58:31.434Z,56.20
2022-11-29T15:01:14.577Z,63.63
2022-11-29T15:04:01.014Z,78.32
2022-11-29T15:06:53.166Z,62.95
2022-11-29T15:09:34.534Z,60.50
2022-11-29T15:12:21.978Z,62.05
2022-11-29T15:15:22.229Z,56.25
2022-11-29T15:18:11.086Z,55.80
2022-11-29T15:21:32.319Z,53.55
2022-11-29T15:24:15.569Z,57.55
2022-11-29T15:27:03.914Z,38.22
2022-11-29T15:29:57.243Z,59.90
2022-11-29T15:32:39.997Z,60.47
2022-11-29T15:35:18.670Z,60.03
2022-11-29T15:37:56.970Z,60.47
2022-11-29T15:40:40.956Z,61.88
2022-11-29T15:43:40.218Z,61.33
2022-11-29T15:46:27.908Z,62.75
2022-11-29T15:49:26.656Z,60.65
2022-11-29T15:52:22.837Z,63.13
2022-11-29T15:55:09.330Z,62.25
2022-11-29T15:57:51.703Z,61.67
2022-11-29T16:00:32.933Z,59.03
2022-11-29T16:03:31.980Z,64.32
2022-11-29T16:06:21.442Z,61.53
2022-11-29T16:08:58.193Z,100.93
2022-11-29T16:11:37.067Z,101.05
2022-11-29T16:14:59.493Z,107.30
2022-11-29T16:17:50.375Z,101.68
2022-11-29T16:20:25.574Z,96.40
2022-11-29T16:23:35.788Z,96.53
2022-11-29T16:26:23.981Z,95.53
2022-11-29T16:29:00.579Z,94.20
2022-11-29T16:31:53.929Z,97.13
2022-11-29T16:34:35.022Z,85.00
2022-11-29T16:37:40.582Z,92.70
2022-11-29T16:40:34.780Z,92.85
2022-11-29T16:43:23.509Z,112.40
2022-11-29T16:46:22.724Z,115.07
2022-11-29T16:49:01.659Z,121.82
2022-11-29T16:51:51.866Z,130.10
2022-11-29T16:54:44.494Z,108.43
2022-11-29T16:57:40.853Z,108.97
2022-11-29T17:00:57.430Z,98.60
2022-11-29T17:03:32.760Z,90.85
2022-11-29T17:06:32.971Z,104.95
2022-11-29T17:09:10.444Z,92.60
2022-11-29T17:11:59.934Z,101.03
2022-11-29T17:14:36.063Z,92.07
2022-11-29T17:17:22.262Z,96.45
2022-11-29T17:20:03.501Z,85.60
2022-11-29T17:22:45.445Z,88.50
2022-11-29T17:25:21.151Z,88.13
2022-11-29T17:28:04.320Z,83.32
2022-11-29T17:30:45.874Z,87.65
